sensor_id;sensor_type;location;lat;lon;timestamp;P1;durP1;ratioP1;P2;durP2;ratioP2
79375;SDS011;68846;53.150;18.136;2023-10-08T00:01:51;5.50;;;1.60;;
79375;SDS011;68846;53.150;18.136;2023-10-08T00:04:23;7.30;;;2.50;;
79375;SDS011;68846;53.150;18.136;2023-10-08T00:06:51;9.30;;;2.20;;
79375;SDS011;68846;53.150;18.136;2023-10-08T00:09:20;9.10;;;2.10;;
79375;SDS011;68846;53.150;18.136;2023-10-08T00:11:49;5.70;;;2.00;;
79375;SDS011;68846;53.150;18.136;2023-10-08T00:14:20;8.60;;;2.10;;
79375;SDS011;68846;53.150;18.136;2023-10-08T00:16:49;7.30;;;1.80;;
79375;SDS011;68846;53.150;18.136;2023-10-08T00:19:17;7.90;;;1.90;;
79375;SDS011;68846;53.150;18.136;2023-10-08T00:21:46;9.70;;;1.80;;
79375;SDS011;68846;53.150;18.136;2023-10-08T00:24:15;7.70;;;1.80;;
79375;SDS011;68846;53.150;18.136;2023-10-08T00:26:43;4.90;;;1.40;;
79375;SDS011;68846;53.150;18.136;2023-10-08T00:29:10;4.50;;;1.40;;
79375;SDS011;68846;53.150;18.136;2023-10-08T00:31:45;6.50;;;1.70;;
79375;SDS011;68846;53.150;18.136;2023-10-08T00:34:13;7.30;;;1.80;;
79375;SDS011;68846;53.150;18.136;2023-10-08T00:36:43;4.60;;;1.60;;
79375;SDS011;68846;53.150;18.136;2023-10-08T00:39:13;4.80;;;1.40;;
79375;SDS011;68846;53.150;18.136;2023-10-08T00:41:44;4.10;;;1.50;;
79375;SDS011;68846;53.150;18.136;2023-10-08T00:44:13;5.90;;;1.50;;
79375;SDS011;68846;53.150;18.136;2023-10-08T00:46:49;5.60;;;1.40;;
79375;SDS011;68846;53.150;18.136;2023-10-08T00:49:22;5.40;;;2.00;;
79375;SDS011;68846;53.150;18.136;2023-10-08T00:52:04;7.50;;;1.70;;
79375;SDS011;68846;53.150;18.136;2023-10-08T00:57:21;4.60;;;1.40;;
79375;SDS011;68846;53.150;18.136;2023-10-08T00:59:51;7.10;;;1.30;;
79375;SDS011;68846;53.150;18.136;2023-10-08T01:02:26;5.90;;;1.50;;
79375;SDS011;68846;53.150;18.136;2023-10-08T01:04:56;7.10;;;1.90;;
79375;SDS011;68846;53.150;18.136;2023-10-08T01:07:24;7.20;;;1.40;;
79375;SDS011;68846;53.150;18.136;2023-10-08T01:09:54;3.50;;;1.30;;
79375;SDS011;68846;53.150;18.136;2023-10-08T01:12:28;4.70;;;1.50;;
79375;SDS011;68846;53.150;18.136;2023-10-08T01:15:01;6.30;;;1.40;;
79375;SDS011;68846;53.150;18.136;2023-10-08T01:17:43;5.80;;;1.60;;
79375;SDS011;68846;53.150;18.136;2023-10-08T01:20:32;3.50;;;1.40;;
79375;SDS011;68846;53.150;18.136;2023-10-08T01:23:11;4.30;;;1.30;;
79375;SDS011;68846;53.150;18.136;2023-10-08T01:25:40;6.10;;;1.40;;
79375;SDS011;68846;53.150;18.136;2023-10-08T01:28:10;4.60;;;1.20;;
79375;SDS011;68846;53.150;18.136;2023-10-08T01:30:50;2.50;;;0.80;;
79375;SDS011;68846;53.150;18.136;2023-10-08T01:33:21;3.20;;;1.00;;
79375;SDS011;68846;53.150;18.136;2023-10-08T01:35:49;2.20;;;1.10;;
79375;SDS011;68846;53.150;18.136;2023-10-08T01:38:17;2.70;;;0.90;;
79375;SDS011;68846;53.150;18.136;2023-10-08T01:40:51;6.00;;;1.10;;
79375;SDS011;68846;53.150;18.136;2023-10-08T01:43:19;2.70;;;0.90;;
79375;SDS011;68846;53.150;18.136;2023-10-08T01:45:48;2.90;;;1.10;;
79375;SDS011;68846;53.150;18.136;2023-10-08T01:48:19;2.90;;;1.10;;
79375;SDS011;68846;53.150;18.136;2023-10-08T01:50:47;4.00;;;1.10;;
79375;SDS011;68846;53.150;18.136;2023-10-08T01:53:15;1.40;;;0.80;;
79375;SDS011;68846;53.150;18.136;2023-10-08T01:55:43;3.10;;;1.00;;
79375;SDS011;68846;53.150;18.136;2023-10-08T01:58:19;1.60;;;0.80;;
79375;SDS011;68846;53.150;18.136;2023-10-08T02:00:48;3.10;;;0.90;;
79375;SDS011;68846;53.150;18.136;2023-10-08T02:03:17;1.70;;;0.70;;
79375;SDS011;68846;53.150;18.136;2023-10-08T02:05:46;2.50;;;0.90;;
79375;SDS011;68846;53.150;18.136;2023-10-08T02:08:14;2.00;;;0.60;;
79375;SDS011;68846;53.150;18.136;2023-10-08T02:10:44;2.70;;;0.90;;
79375;SDS011;68846;53.150;18.136;2023-10-08T02:13:14;2.40;;;0.70;;
79375;SDS011;68846;53.150;18.136;2023-10-08T02:15:47;3.20;;;0.70;;
79375;SDS011;68846;53.150;18.136;2023-10-08T02:18:43;1.40;;;0.60;;
79375;SDS011;68846;53.150;18.136;2023-10-08T02:21:11;2.70;;;0.60;;
79375;SDS011;68846;53.150;18.136;2023-10-08T02:23:40;1.10;;;0.50;;
79375;SDS011;68846;53.150;18.136;2023-10-08T02:26:08;1.50;;;0.70;;
79375;SDS011;68846;53.150;18.136;2023-10-08T02:28:36;3.90;;;0.90;;
79375;SDS011;68846;53.150;18.136;2023-10-08T02:31:06;3.10;;;0.60;;
79375;SDS011;68846;53.150;18.136;2023-10-08T02:33:36;2.60;;;0.60;;
79375;SDS011;68846;53.150;18.136;2023-10-08T02:36:04;1.10;;;0.70;;
79375;SDS011;68846;53.150;18.136;2023-10-08T02:38:32;1.20;;;0.60;;
79375;SDS011;68846;53.150;18.136;2023-10-08T02:41:05;1.90;;;0.70;;
79375;SDS011;68846;53.150;18.136;2023-10-08T02:43:33;1.80;;;0.60;;
79375;SDS011;68846;53.150;18.136;2023-10-08T02:46:05;3.10;;;0.60;;
79375;SDS011;68846;53.150;18.136;2023-10-08T02:48:34;1.00;;;0.50;;
79375;SDS011;68846;53.150;18.136;2023-10-08T02:51:02;0.90;;;0.50;;
79375;SDS011;68846;53.150;18.136;2023-10-08T02:53:43;2.00;;;0.60;;
79375;SDS011;68846;53.150;18.136;2023-10-08T02:56:11;1.80;;;0.90;;
79375;SDS011;68846;53.150;18.136;2023-10-08T02:58:42;1.40;;;0.50;;
79375;SDS011;68846;53.150;18.136;2023-10-08T03:01:16;2.20;;;0.70;;
79375;SDS011;68846;53.150;18.136;2023-10-08T03:03:43;0.90;;;0.40;;
79375;SDS011;68846;53.150;18.136;2023-10-08T03:06:12;0.80;;;0.40;;
79375;SDS011;68846;53.150;18.136;2023-10-08T03:08:46;1.00;;;0.60;;
79375;SDS011;68846;53.150;18.136;2023-10-08T03:11:15;3.00;;;0.50;;
79375;SDS011;68846;53.150;18.136;2023-10-08T03:13:46;1.30;;;0.40;;
79375;SDS011;68846;53.150;18.136;2023-10-08T03:16:15;0.80;;;0.40;;
79375;SDS011;68846;53.150;18.136;2023-10-08T03:18:43;2.10;;;0.40;;
79375;SDS011;68846;53.150;18.136;2023-10-08T03:21:12;0.70;;;0.40;;
79375;SDS011;68846;53.150;18.136;2023-10-08T03:23:52;2.10;;;0.40;;
79375;SDS011;68846;53.150;18.136;2023-10-08T03:26:24;0.30;;;0.30;;
79375;SDS011;68846;53.150;18.136;2023-10-08T03:29:03;0.70;;;0.50;;
79375;SDS011;68846;53.150;18.136;2023-10-08T03:31:36;0.70;;;0.40;;
79375;SDS011;68846;53.150;18.136;2023-10-08T03:34:22;1.70;;;0.40;;
79375;SDS011;68846;53.150;18.136;2023-10-08T03:37:03;0.80;;;0.40;;
79375;SDS011;68846;53.150;18.136;2023-10-08T03:39:33;2.30;;;0.50;;
79375;SDS011;68846;53.150;18.136;2023-10-08T03:42:21;0.90;;;0.60;;
79375;SDS011;68846;53.150;18.136;2023-10-08T03:44:53;0.70;;;0.20;;
79375;SDS011;68846;53.150;18.136;2023-10-08T03:47:24;1.10;;;0.40;;
79375;SDS011;68846;53.150;18.136;2023-10-08T03:49:59;1.40;;;0.40;;
79375;SDS011;68846;53.150;18.136;2023-10-08T03:52:33;1.70;;;0.50;;
79375;SDS011;68846;53.150;18.136;2023-10-08T03:55:05;2.40;;;0.60;;
79375;SDS011;68846;53.150;18.136;2023-10-08T03:58:23;0.90;;;0.40;;
79375;SDS011;68846;53.150;18.136;2023-10-08T04:00:58;0.50;;;0.40;;
79375;SDS011;68846;53.150;18.136;2023-10-08T04:03:45;1.00;;;0.30;;
79375;SDS011;68846;53.150;18.136;2023-10-08T04:06:23;1.50;;;0.40;;
79375;SDS011;68846;53.150;18.136;2023-10-08T04:09:05;1.00;;;0.50;;
79375;SDS011;68846;53.150;18.136;2023-10-08T04:11:37;0.90;;;0.40;;
79375;SDS011;68846;53.150;18.136;2023-10-08T04:14:19;2.10;;;0.40;;
79375;SDS011;68846;53.150;18.136;2023-10-08T04:16:48;0.60;;;0.40;;
79375;SDS011;68846;53.150;18.136;2023-10-08T04:19:20;0.80;;;0.40;;
79375;SDS011;68846;53.150;18.136;2023-10-08T04:21:54;2.50;;;1.40;;
79375;SDS011;68846;53.150;18.136;2023-10-08T04:24:26;0.60;;;0.30;;
79375;SDS011;68846;53.150;18.136;2023-10-08T04:27:04;0.80;;;0.30;;
79375;SDS011;68846;53.150;18.136;2023-10-08T04:29:34;1.30;;;0.40;;
79375;SDS011;68846;53.150;18.136;2023-10-08T04:32:04;1.50;;;0.40;;
79375;SDS011;68846;53.150;18.136;2023-10-08T04:34:35;0.60;;;0.40;;
79375;SDS011;68846;53.150;18.136;2023-10-08T04:37:03;0.80;;;0.60;;
79375;SDS011;68846;53.150;18.136;2023-10-08T04:39:40;0.90;;;0.60;;
79375;SDS011;68846;53.150;18.136;2023-10-08T04:42:14;2.30;;;0.50;;
79375;SDS011;68846;53.150;18.136;2023-10-08T04:44:42;0.90;;;0.40;;
79375;SDS011;68846;53.150;18.136;2023-10-08T04:47:10;5.00;;;0.70;;
79375;SDS011;68846;53.150;18.136;2023-10-08T04:49:58;0.80;;;0.50;;
79375;SDS011;68846;53.150;18.136;2023-10-08T04:52:26;0.80;;;0.50;;
79375;SDS011;68846;53.150;18.136;2023-10-08T04:54:55;2.80;;;0.80;;
79375;SDS011;68846;53.150;18.136;2023-10-08T04:57:23;1.70;;;0.80;;
79375;SDS011;68846;53.150;18.136;2023-10-08T04:59:53;3.90;;;0.60;;
79375;SDS011;68846;53.150;18.136;2023-10-08T05:02:24;2.00;;;0.50;;
79375;SDS011;68846;53.150;18.136;2023-10-08T05:05:16;6.60;;;0.60;;
79375;SDS011;68846;53.150;18.136;2023-10-08T05:07:44;1.00;;;0.50;;
79375;SDS011;68846;53.150;18.136;2023-10-08T05:10:13;1.70;;;0.70;;
79375;SDS011;68846;53.150;18.136;2023-10-08T05:12:54;0.80;;;0.50;;
79375;SDS011;68846;53.150;18.136;2023-10-08T05:15:34;1.10;;;0.50;;
79375;SDS011;68846;53.150;18.136;2023-10-08T05:18:33;2.50;;;1.40;;
79375;SDS011;68846;53.150;18.136;2023-10-08T05:21:20;1.10;;;0.70;;
79375;SDS011;68846;53.150;18.136;2023-10-08T05:24:02;0.60;;;0.40;;
79375;SDS011;68846;53.150;18.136;2023-10-08T05:26:41;1.90;;;0.50;;
79375;SDS011;68846;53.150;18.136;2023-10-08T05:29:11;1.10;;;0.60;;
79375;SDS011;68846;53.150;18.136;2023-10-08T05:31:58;2.00;;;0.70;;
79375;SDS011;68846;53.150;18.136;2023-10-08T05:34:44;2.20;;;0.50;;
79375;SDS011;68846;53.150;18.136;2023-10-08T05:37:32;1.30;;;0.50;;
79375;SDS011;68846;53.150;18.136;2023-10-08T05:40:05;0.80;;;0.40;;
79375;SDS011;68846;53.150;18.136;2023-10-08T05:42:49;1.20;;;0.40;;
79375;SDS011;68846;53.150;18.136;2023-10-08T05:45:17;1.80;;;1.20;;
79375;SDS011;68846;53.150;18.136;2023-10-08T05:47:56;1.50;;;0.70;;
79375;SDS011;68846;53.150;18.136;2023-10-08T05:50:42;1.80;;;0.50;;
79375;SDS011;68846;53.150;18.136;2023-10-08T05:53:23;1.30;;;0.60;;
79375;SDS011;68846;53.150;18.136;2023-10-08T05:56:09;2.20;;;0.70;;
79375;SDS011;68846;53.150;18.136;2023-10-08T05:58:55;1.30;;;0.60;;
79375;SDS011;68846;53.150;18.136;2023-10-08T06:01:45;1.50;;;0.80;;
79375;SDS011;68846;53.150;18.136;2023-10-08T06:04:13;1.70;;;0.60;;
79375;SDS011;68846;53.150;18.136;2023-10-08T06:07:22;2.70;;;0.80;;
79375;SDS011;68846;53.150;18.136;2023-10-08T06:10:00;1.00;;;0.50;;
79375;SDS011;68846;53.150;18.136;2023-10-08T06:12:41;1.70;;;0.70;;
79375;SDS011;68846;53.150;18.136;2023-10-08T06:15:17;1.20;;;0.60;;
79375;SDS011;68846;53.150;18.136;2023-10-08T06:18:29;1.80;;;0.70;;
79375;SDS011;68846;53.150;18.136;2023-10-08T06:21:01;1.80;;;0.70;;
79375;SDS011;68846;53.150;18.136;2023-10-08T06:23:40;1.20;;;0.50;;
79375;SDS011;68846;53.150;18.136;2023-10-08T06:26:09;1.40;;;0.70;;
79375;SDS011;68846;53.150;18.136;2023-10-08T06:28:38;0.70;;;0.50;;
79375;SDS011;68846;53.150;18.136;2023-10-08T06:31:07;1.70;;;0.60;;
79375;SDS011;68846;53.150;18.136;2023-10-08T06:33:39;3.30;;;0.90;;
79375;SDS011;68846;53.150;18.136;2023-10-08T06:36:08;3.30;;;0.80;;
79375;SDS011;68846;53.150;18.136;2023-10-08T06:38:40;1.10;;;0.60;;
79375;SDS011;68846;53.150;18.136;2023-10-08T06:41:18;1.40;;;0.70;;
79375;SDS011;68846;53.150;18.136;2023-10-08T06:43:47;1.70;;;0.90;;
79375;SDS011;68846;53.150;18.136;2023-10-08T06:46:17;2.00;;;0.70;;
79375;SDS011;68846;53.150;18.136;2023-10-08T06:51:17;2.20;;;0.70;;
79375;SDS011;68846;53.150;18.136;2023-10-08T06:53:46;2.40;;;0.70;;
79375;SDS011;68846;53.150;18.136;2023-10-08T06:56:15;2.90;;;0.60;;
79375;SDS011;68846;53.150;18.136;2023-10-08T06:58:45;1.50;;;0.70;;
79375;SDS011;68846;53.150;18.136;2023-10-08T07:01:20;1.60;;;0.80;;
79375;SDS011;68846;53.150;18.136;2023-10-08T07:03:49;1.20;;;0.60;;
79375;SDS011;68846;53.150;18.136;2023-10-08T07:06:17;1.20;;;0.70;;
79375;SDS011;68846;53.150;18.136;2023-10-08T07:08:59;1.90;;;0.70;;
79375;SDS011;68846;53.150;18.136;2023-10-08T07:11:32;1.10;;;0.50;;
79375;SDS011;68846;53.150;18.136;2023-10-08T07:14:02;1.80;;;0.60;;
79375;SDS011;68846;53.150;18.136;2023-10-08T07:16:31;0.70;;;0.50;;
79375;SDS011;68846;53.150;18.136;2023-10-08T07:19:00;1.40;;;0.70;;
79375;SDS011;68846;53.150;18.136;2023-10-08T07:21:46;2.10;;;0.70;;
79375;SDS011;68846;53.150;18.136;2023-10-08T07:24:14;1.20;;;0.60;;
79375;SDS011;68846;53.150;18.136;2023-10-08T07:26:44;1.40;;;0.50;;
79375;SDS011;68846;53.150;18.136;2023-10-08T07:29:16;2.20;;;0.50;;
79375;SDS011;68846;53.150;18.136;2023-10-08T07:31:45;2.10;;;0.60;;
79375;SDS011;68846;53.150;18.136;2023-10-08T07:34:19;1.70;;;0.60;;
79375;SDS011;68846;53.150;18.136;2023-10-08T07:36:50;3.70;;;0.80;;
79375;SDS011;68846;53.150;18.136;2023-10-08T07:39:21;1.90;;;0.50;;
79375;SDS011;68846;53.150;18.136;2023-10-08T07:41:53;2.40;;;0.60;;
79375;SDS011;68846;53.150;18.136;2023-10-08T07:44:22;1.50;;;0.50;;
79375;SDS011;68846;53.150;18.136;2023-10-08T07:46:52;1.00;;;0.40;;
79375;SDS011;68846;53.150;18.136;2023-10-08T07:49:23;2.10;;;0.60;;
79375;SDS011;68846;53.150;18.136;2023-10-08T07:51:52;0.90;;;0.40;;
79375;SDS011;68846;53.150;18.136;2023-10-08T07:54:22;2.40;;;0.60;;
79375;SDS011;68846;53.150;18.136;2023-10-08T07:56:52;1.10;;;0.60;;
79375;SDS011;68846;53.150;18.136;2023-10-08T07:59:36;2.60;;;0.60;;
79375;SDS011;68846;53.150;18.136;2023-10-08T08:02:16;1.80;;;0.60;;
79375;SDS011;68846;53.150;18.136;2023-10-08T08:04:50;3.80;;;1.00;;
79375;SDS011;68846;53.150;18.136;2023-10-08T08:07:20;3.20;;;0.60;;
79375;SDS011;68846;53.150;18.136;2023-10-08T08:09:51;1.60;;;0.50;;
79375;SDS011;68846;53.150;18.136;2023-10-08T08:12:26;0.70;;;0.40;;
79375;SDS011;68846;53.150;18.136;2023-10-08T08:14:55;0.80;;;0.60;;
79375;SDS011;68846;53.150;18.136;2023-10-08T08:17:24;2.70;;;0.60;;
79375;SDS011;68846;53.150;18.136;2023-10-08T08:19:52;2.20;;;0.50;;
79375;SDS011;68846;53.150;18.136;2023-10-08T08:22:21;2.80;;;0.50;;
79375;SDS011;68846;53.150;18.136;2023-10-08T08:24:51;1.30;;;0.60;;
79375;SDS011;68846;53.150;18.136;2023-10-08T08:27:31;2.60;;;0.70;;
79375;SDS011;68846;53.150;18.136;2023-10-08T08:30:00;1.70;;;0.60;;
79375;SDS011;68846;53.150;18.136;2023-10-08T08:32:38;1.40;;;0.50;;
79375;SDS011;68846;53.150;18.136;2023-10-08T08:35:08;1.30;;;0.70;;
79375;SDS011;68846;53.150;18.136;2023-10-08T08:37:37;0.70;;;0.40;;
79375;SDS011;68846;53.150;18.136;2023-10-08T08:40:09;1.00;;;0.50;;
79375;SDS011;68846;53.150;18.136;2023-10-08T08:42:45;1.60;;;0.60;;
79375;SDS011;68846;53.150;18.136;2023-10-08T08:45:22;1.30;;;0.40;;
79375;SDS011;68846;53.150;18.136;2023-10-08T08:47:54;1.90;;;0.70;;
79375;SDS011;68846;53.150;18.136;2023-10-08T08:50:23;0.80;;;0.40;;
79375;SDS011;68846;53.150;18.136;2023-10-08T08:52:53;1.00;;;0.40;;
79375;SDS011;68846;53.150;18.136;2023-10-08T08:55:21;1.60;;;0.40;;
79375;SDS011;68846;53.150;18.136;2023-10-08T08:57:50;1.10;;;0.50;;
79375;SDS011;68846;53.150;18.136;2023-10-08T09:00:20;1.10;;;0.30;;
79375;SDS011;68846;53.150;18.136;2023-10-08T09:02:48;2.10;;;0.50;;
79375;SDS011;68846;53.150;18.136;2023-10-08T09:05:17;3.20;;;0.50;;
79375;SDS011;68846;53.150;18.136;2023-10-08T09:08:04;1.40;;;0.50;;
79375;SDS011;68846;53.150;18.136;2023-10-08T09:10:37;2.30;;;0.60;;
79375;SDS011;68846;53.150;18.136;2023-10-08T09:13:22;1.20;;;0.50;;
79375;SDS011;68846;53.150;18.136;2023-10-08T09:15:51;1.80;;;0.60;;
79375;SDS011;68846;53.150;18.136;2023-10-08T09:18:20;0.50;;;0.40;;
79375;SDS011;68846;53.150;18.136;2023-10-08T09:20:49;1.90;;;0.60;;
79375;SDS011;68846;53.150;18.136;2023-10-08T09:23:17;1.70;;;0.50;;
79375;SDS011;68846;53.150;18.136;2023-10-08T09:25:46;0.50;;;0.30;;
79375;SDS011;68846;53.150;18.136;2023-10-08T09:28:17;1.70;;;0.30;;
79375;SDS011;68846;53.150;18.136;2023-10-08T09:30:45;1.20;;;0.40;;
79375;SDS011;68846;53.150;18.136;2023-10-08T09:33:15;0.70;;;0.30;;
79375;SDS011;68846;53.150;18.136;2023-10-08T09:35:46;2.70;;;0.60;;
79375;SDS011;68846;53.150;18.136;2023-10-08T09:38:14;1.60;;;0.30;;
79375;SDS011;68846;53.150;18.136;2023-10-08T09:40:49;1.00;;;0.50;;
79375;SDS011;68846;53.150;18.136;2023-10-08T09:43:20;0.90;;;0.30;;
79375;SDS011;68846;53.150;18.136;2023-10-08T09:45:53;0.30;;;0.10;;
79375;SDS011;68846;53.150;18.136;2023-10-08T09:48:27;1.00;;;0.40;;
79375;SDS011;68846;53.150;18.136;2023-10-08T09:50:59;1.20;;;0.50;;
79375;SDS011;68846;53.150;18.136;2023-10-08T09:54:15;0.80;;;0.30;;
79375;SDS011;68846;53.150;18.136;2023-10-08T09:57:08;2.00;;;0.30;;
79375;SDS011;68846;53.150;18.136;2023-10-08T09:59:37;0.70;;;0.70;;
79375;SDS011;68846;53.150;18.136;2023-10-08T10:02:08;2.00;;;0.50;;
79375;SDS011;68846;53.150;18.136;2023-10-08T10:04:44;3.10;;;0.40;;
79375;SDS011;68846;53.150;18.136;2023-10-08T10:07:14;1.30;;;0.70;;
79375;SDS011;68846;53.150;18.136;2023-10-08T10:09:44;2.30;;;0.40;;
79375;SDS011;68846;53.150;18.136;2023-10-08T10:12:18;1.10;;;0.40;;
79375;SDS011;68846;53.150;18.136;2023-10-08T10:14:58;0.80;;;0.50;;
79375;SDS011;68846;53.150;18.136;2023-10-08T10:17:28;0.80;;;0.50;;
79375;SDS011;68846;53.150;18.136;2023-10-08T10:19:56;1.00;;;0.40;;
79375;SDS011;68846;53.150;18.136;2023-10-08T10:22:52;1.90;;;0.60;;
79375;SDS011;68846;53.150;18.136;2023-10-08T10:25:34;0.60;;;0.40;;
79375;SDS011;68846;53.150;18.136;2023-10-08T10:30:35;0.90;;;0.50;;
79375;SDS011;68846;53.150;18.136;2023-10-08T10:33:03;3.10;;;0.60;;
79375;SDS011;68846;53.150;18.136;2023-10-08T10:35:35;1.40;;;0.60;;
79375;SDS011;68846;53.150;18.136;2023-10-08T10:38:07;1.70;;;0.60;;
79375;SDS011;68846;53.150;18.136;2023-10-08T10:40:38;2.30;;;0.50;;
79375;SDS011;68846;53.150;18.136;2023-10-08T10:43:09;1.90;;;0.50;;
79375;SDS011;68846;53.150;18.136;2023-10-08T10:45:37;0.50;;;0.30;;
79375;SDS011;68846;53.150;18.136;2023-10-08T10:48:09;0.30;;;0.30;;
79375;SDS011;68846;53.150;18.136;2023-10-08T10:50:42;1.30;;;0.50;;
79375;SDS011;68846;53.150;18.136;2023-10-08T10:53:39;1.40;;;0.60;;
79375;SDS011;68846;53.150;18.136;2023-10-08T10:56:24;2.00;;;0.40;;
79375;SDS011;68846;53.150;18.136;2023-10-08T10:59:00;1.00;;;0.50;;
79375;SDS011;68846;53.150;18.136;2023-10-08T11:01:39;1.00;;;0.40;;
79375;SDS011;68846;53.150;18.136;2023-10-08T11:04:20;1.00;;;0.50;;
79375;SDS011;68846;53.150;18.136;2023-10-08T11:06:56;1.80;;;0.40;;
79375;SDS011;68846;53.150;18.136;2023-10-08T11:09:26;1.20;;;0.60;;
79375;SDS011;68846;53.150;18.136;2023-10-08T11:14:42;1.40;;;0.60;;
79375;SDS011;68846;53.150;18.136;2023-10-08T11:17:17;2.10;;;0.60;;
79375;SDS011;68846;53.150;18.136;2023-10-08T11:19:50;2.40;;;1.50;;
79375;SDS011;68846;53.150;18.136;2023-10-08T11:22:18;0.60;;;0.30;;
79375;SDS011;68846;53.150;18.136;2023-10-08T11:24:52;1.20;;;0.50;;
79375;SDS011;68846;53.150;18.136;2023-10-08T11:27:24;1.40;;;0.60;;
79375;SDS011;68846;53.150;18.136;2023-10-08T11:30:07;1.60;;;0.50;;
79375;SDS011;68846;53.150;18.136;2023-10-08T11:32:38;1.20;;;0.40;;
79375;SDS011;68846;53.150;18.136;2023-10-08T11:35:06;1.20;;;0.40;;
79375;SDS011;68846;53.150;18.136;2023-10-08T11:37:46;2.80;;;0.70;;
79375;SDS011;68846;53.150;18.136;2023-10-08T11:40:25;1.70;;;0.60;;
79375;SDS011;68846;53.150;18.136;2023-10-08T11:42:56;1.60;;;0.40;;
79375;SDS011;68846;53.150;18.136;2023-10-08T11:45:30;1.70;;;0.40;;
79375;SDS011;68846;53.150;18.136;2023-10-08T11:48:06;1.50;;;0.40;;
79375;SDS011;68846;53.150;18.136;2023-10-08T11:50:39;1.40;;;0.60;;
79375;SDS011;68846;53.150;18.136;2023-10-08T11:53:07;1.50;;;0.50;;
79375;SDS011;68846;53.150;18.136;2023-10-08T11:55:36;1.20;;;0.50;;
79375;SDS011;68846;53.150;18.136;2023-10-08T11:58:06;0.50;;;0.40;;
79375;SDS011;68846;53.150;18.136;2023-10-08T12:00:42;1.50;;;0.70;;
79375;SDS011;68846;53.150;18.136;2023-10-08T12:03:14;1.10;;;0.40;;
79375;SDS011;68846;53.150;18.136;2023-10-08T12:05:46;2.00;;;0.50;;
79375;SDS011;68846;53.150;18.136;2023-10-08T12:08:15;0.60;;;0.20;;
79375;SDS011;68846;53.150;18.136;2023-10-08T12:10:45;1.20;;;0.30;;
79375;SDS011;68846;53.150;18.136;2023-10-08T12:13:15;0.90;;;0.40;;
79375;SDS011;68846;53.150;18.136;2023-10-08T12:15:43;1.80;;;0.30;;
79375;SDS011;68846;53.150;18.136;2023-10-08T12:18:11;0.80;;;0.30;;
79375;SDS011;68846;53.150;18.136;2023-10-08T12:20:43;1.50;;;0.40;;
79375;SDS011;68846;53.150;18.136;2023-10-08T12:23:14;1.40;;;0.60;;
79375;SDS011;68846;53.150;18.136;2023-10-08T12:25:53;0.70;;;0.30;;
79375;SDS011;68846;53.150;18.136;2023-10-08T12:28:24;1.40;;;0.50;;
79375;SDS011;68846;53.150;18.136;2023-10-08T12:30:54;2.00;;;0.20;;
79375;SDS011;68846;53.150;18.136;2023-10-08T12:33:28;0.60;;;0.30;;
79375;SDS011;68846;53.150;18.136;2023-10-08T12:35:57;0.90;;;0.40;;
79375;SDS011;68846;53.150;18.136;2023-10-08T12:38:25;0.80;;;0.30;;
79375;SDS011;68846;53.150;18.136;2023-10-08T12:40:55;0.70;;;0.30;;
79375;SDS011;68846;53.150;18.136;2023-10-08T12:43:23;1.50;;;0.30;;
79375;SDS011;68846;53.150;18.136;2023-10-08T12:45:55;1.20;;;0.50;;
79375;SDS011;68846;53.150;18.136;2023-10-08T12:48:25;0.80;;;0.40;;
79375;SDS011;68846;53.150;18.136;2023-10-08T12:50:55;0.60;;;0.30;;
79375;SDS011;68846;53.150;18.136;2023-10-08T12:53:27;1.70;;;0.80;;
79375;SDS011;68846;53.150;18.136;2023-10-08T12:56:05;4.50;;;0.40;;
79375;SDS011;68846;53.150;18.136;2023-10-08T12:58:35;0.70;;;0.30;;
79375;SDS011;68846;53.150;18.136;2023-10-08T13:01:12;0.90;;;0.40;;
79375;SDS011;68846;53.150;18.136;2023-10-08T13:03:41;0.70;;;0.30;;
79375;SDS011;68846;53.150;18.136;2023-10-08T13:06:09;1.30;;;0.50;;
79375;SDS011;68846;53.150;18.136;2023-10-08T13:11:10;1.30;;;0.60;;
79375;SDS011;68846;53.150;18.136;2023-10-08T13:13:38;0.90;;;0.40;;
79375;SDS011;68846;53.150;18.136;2023-10-08T13:16:06;0.70;;;0.30;;
79375;SDS011;68846;53.150;18.136;2023-10-08T13:18:34;1.50;;;0.70;;
79375;SDS011;68846;53.150;18.136;2023-10-08T13:21:04;1.10;;;0.50;;
79375;SDS011;68846;53.150;18.136;2023-10-08T13:23:33;1.60;;;0.60;;
79375;SDS011;68846;53.150;18.136;2023-10-08T13:26:02;1.30;;;0.50;;
79375;SDS011;68846;53.150;18.136;2023-10-08T13:28:34;0.40;;;0.20;;
79375;SDS011;68846;53.150;18.136;2023-10-08T13:31:03;0.60;;;0.40;;
79375;SDS011;68846;53.150;18.136;2023-10-08T13:33:38;1.30;;;0.70;;
79375;SDS011;68846;53.150;18.136;2023-10-08T13:36:08;0.30;;;0.20;;
79375;SDS011;68846;53.150;18.136;2023-10-08T13:38:37;0.60;;;0.30;;
79375;SDS011;68846;53.150;18.136;2023-10-08T13:41:05;1.30;;;0.60;;
79375;SDS011;68846;53.150;18.136;2023-10-08T13:43:42;1.00;;;0.50;;
79375;SDS011;68846;53.150;18.136;2023-10-08T13:46:20;1.40;;;0.70;;
79375;SDS011;68846;53.150;18.136;2023-10-08T13:48:50;1.70;;;0.70;;
79375;SDS011;68846;53.150;18.136;2023-10-08T13:51:20;1.40;;;0.60;;
79375;SDS011;68846;53.150;18.136;2023-10-08T13:53:53;1.60;;;0.60;;
79375;SDS011;68846;53.150;18.136;2023-10-08T13:56:27;1.00;;;0.30;;
79375;SDS011;68846;53.150;18.136;2023-10-08T13:59:23;1.40;;;0.50;;
79375;SDS011;68846;53.150;18.136;2023-10-08T14:01:52;0.90;;;0.40;;
79375;SDS011;68846;53.150;18.136;2023-10-08T14:04:22;1.20;;;0.50;;
79375;SDS011;68846;53.150;18.136;2023-10-08T14:06:57;1.30;;;0.60;;
79375;SDS011;68846;53.150;18.136;2023-10-08T14:09:26;2.10;;;0.60;;
79375;SDS011;68846;53.150;18.136;2023-10-08T14:12:04;1.00;;;0.40;;
79375;SDS011;68846;53.150;18.136;2023-10-08T14:14:35;0.60;;;0.50;;
79375;SDS011;68846;53.150;18.136;2023-10-08T14:17:03;1.70;;;0.50;;
79375;SDS011;68846;53.150;18.136;2023-10-08T14:19:36;1.00;;;0.40;;
79375;SDS011;68846;53.150;18.136;2023-10-08T14:22:13;1.30;;;0.70;;
79375;SDS011;68846;53.150;18.136;2023-10-08T14:24:42;1.10;;;0.30;;
79375;SDS011;68846;53.150;18.136;2023-10-08T14:27:12;1.20;;;0.50;;
79375;SDS011;68846;53.150;18.136;2023-10-08T14:29:42;1.90;;;0.50;;
79375;SDS011;68846;53.150;18.136;2023-10-08T14:32:14;2.20;;;0.50;;
79375;SDS011;68846;53.150;18.136;2023-10-08T14:34:43;2.50;;;0.40;;
79375;SDS011;68846;53.150;18.136;2023-10-08T14:37:11;1.60;;;0.50;;
79375;SDS011;68846;53.150;18.136;2023-10-08T14:39:57;0.80;;;0.30;;
79375;SDS011;68846;53.150;18.136;2023-10-08T14:42:44;2.00;;;0.50;;
79375;SDS011;68846;53.150;18.136;2023-10-08T14:45:23;0.80;;;0.30;;
79375;SDS011;68846;53.150;18.136;2023-10-08T14:47:58;2.30;;;0.50;;
79375;SDS011;68846;53.150;18.136;2023-10-08T14:50:27;0.80;;;0.40;;
79375;SDS011;68846;53.150;18.136;2023-10-08T14:52:59;3.60;;;0.60;;
79375;SDS011;68846;53.150;18.136;2023-10-08T14:55:33;3.40;;;0.50;;
79375;SDS011;68846;53.150;18.136;2023-10-08T14:58:28;1.30;;;0.60;;
79375;SDS011;68846;53.150;18.136;2023-10-08T15:00:56;1.90;;;0.70;;
79375;SDS011;68846;53.150;18.136;2023-10-08T15:03:24;1.90;;;0.40;;
79375;SDS011;68846;53.150;18.136;2023-10-08T15:05:55;1.50;;;0.70;;
79375;SDS011;68846;53.150;18.136;2023-10-08T15:08:23;1.80;;;0.60;;
79375;SDS011;68846;53.150;18.136;2023-10-08T15:10:51;2.10;;;0.70;;
79375;SDS011;68846;53.150;18.136;2023-10-08T15:13:19;0.90;;;0.50;;
79375;SDS011;68846;53.150;18.136;2023-10-08T15:15:47;1.80;;;0.80;;
79375;SDS011;68846;53.150;18.136;2023-10-08T15:18:15;2.00;;;0.60;;
79375;SDS011;68846;53.150;18.136;2023-10-08T15:20:42;1.00;;;0.50;;
79375;SDS011;68846;53.150;18.136;2023-10-08T15:23:10;1.10;;;0.40;;